createdAt,value
2019-06-20T00:00:42.491Z,22.90
2019-06-20T00:03:13.627Z,22.93
2019-06-20T00:05:44.790Z,22.85
2019-06-20T00:08:15.878Z,22.89
2019-06-20T00:10:47.040Z,22.91
2019-06-20T00:13:18.130Z,22.88
2019-06-20T00:15:49.382Z,22.87
2019-06-20T00:18:20.498Z,22.85
2019-06-20T00:20:52.031Z,22.78
2019-06-20T00:23:23.137Z,22.74
2019-06-20T00:25:54.293Z,22.72
2019-06-20T00:28:25.385Z,22.73
2019-06-20T00:30:56.532Z,22.71
2019-06-20T00:33:27.616Z,22.68
2019-06-20T00:35:58.748Z,22.66
2019-06-20T00:38:29.839Z,22.67
2019-06-20T00:41:00.998Z,22.70
2019-06-20T00:43:32.078Z,22.68
2019-06-20T00:46:03.267Z,22.62
2019-06-20T00:48:34.427Z,22.59
2019-06-20T00:51:05.597Z,22.56
2019-06-20T00:53:36.704Z,22.48
2019-06-20T00:56:07.872Z,22.46
2019-06-20T00:58:39.041Z,22.40
2019-06-20T01:01:10.149Z,22.36
2019-06-20T01:03:41.750Z,22.37
2019-06-20T01:06:12.894Z,22.31
2019-06-20T01:08:43.993Z,22.27
2019-06-20T01:11:15.150Z,22.25
2019-06-20T01:13:46.372Z,22.27
2019-06-20T01:16:17.683Z,22.25
2019-06-20T01:18:49.388Z,22.27
2019-06-20T01:21:20.553Z,22.29
2019-06-20T01:23:51.658Z,22.27
2019-06-20T01:26:22.794Z,22.26
2019-06-20T01:28:53.883Z,22.25
2019-06-20T01:31:25.031Z,22.26
2019-06-20T01:33:56.132Z,22.24
2019-06-20T01:36:27.277Z,22.22
2019-06-20T01:38:58.380Z,22.19
2019-06-20T01:41:29.514Z,22.20
2019-06-20T01:44:00.634Z,22.18
2019-06-20T01:46:32.199Z,22.20
2019-06-20T01:49:03.290Z,22.24
2019-06-20T01:51:34.558Z,22.23
2019-06-20T01:54:05.670Z,22.27
2019-06-20T01:56:36.792Z,22.30
2019-06-20T01:59:07.885Z,22.29
2019-06-20T02:01:39.040Z,22.24
2019-06-20T02:04:10.134Z,22.16
2019-06-20T02:06:41.384Z,22.14
2019-06-20T02:09:12.486Z,22.10
2019-06-20T02:11:43.744Z,22.04
2019-06-20T02:14:14.868Z,22.02
2019-06-20T02:16:46.565Z,22.01
2019-06-20T02:19:17.676Z,22.00
2019-06-20T02:21:48.852Z,21.98
2019-06-20T02:24:19.940Z,21.95
2019-06-20T02:26:51.101Z,21.89
2019-06-20T02:29:22.187Z,21.90
2019-06-20T02:31:53.335Z,21.84
2019-06-20T02:34:24.436Z,21.78
2019-06-20T02:36:55.600Z,21.74
2019-06-20T02:39:26.693Z,21.70
2019-06-20T02:41:57.895Z,21.68
2019-06-20T02:44:30.824Z,21.61
2019-06-20T02:47:01.949Z,21.59
2019-06-20T02:49:33.050Z,21.50
2019-06-20T02:52:05.098Z,21.49
2019-06-20T02:54:36.195Z,21.40
2019-06-20T02:57:07.371Z,21.40
2019-06-20T02:59:38.420Z,21.38
2019-06-20T03:02:09.558Z,21.35
2019-06-20T03:04:40.643Z,21.35
2019-06-20T03:07:11.806Z,21.30
2019-06-20T03:09:42.894Z,21.36
2019-06-20T03:12:14.022Z,21.32
2019-06-20T03:14:45.943Z,21.28
2019-06-20T03:17:17.587Z,21.22
2019-06-20T03:19:48.678Z,21.21
2019-06-20T03:22:19.860Z,21.21
2019-06-20T03:24:51.003Z,21.10
2019-06-20T03:27:22.111Z,21.03
2019-06-20T03:29:53.192Z,20.99
2019-06-20T03:32:24.380Z,20.95
2019-06-20T03:34:55.475Z,20.96
2019-06-20T03:37:26.714Z,20.93
2019-06-20T03:39:57.752Z,20.96
2019-06-20T03:42:29.124Z,20.89
2019-06-20T03:45:02.402Z,20.82
2019-06-20T03:47:32.983Z,20.86
2019-06-20T03:50:07.549Z,20.86
2019-06-20T03:52:38.701Z,20.88
2019-06-20T03:55:10.402Z,20.90
2019-06-20T03:57:41.565Z,20.99
2019-06-20T04:00:13.063Z,21.00
2019-06-20T04:02:44.625Z,21.04
2019-06-20T04:05:15.820Z,21.10
2019-06-20T04:07:46.967Z,21.10
2019-06-20T04:10:18.065Z,21.15
2019-06-20T04:12:49.240Z,21.27
2019-06-20T04:15:20.323Z,21.37
2019-06-20T04:17:52.011Z,21.42
2019-06-20T04:20:23.153Z,21.43
2019-06-20T04:22:54.332Z,21.50
2019-06-20T04:25:25.459Z,21.60
2019-06-20T04:27:56.617Z,21.74
2019-06-20T04:30:27.744Z,21.85
2019-06-20T04:32:58.870Z,21.94
2019-06-20T04:35:29.966Z,22.01
2019-06-20T04:38:01.145Z,22.11
2019-06-20T04:40:32.221Z,22.18
2019-06-20T04:43:03.412Z,22.39
2019-06-20T04:45:42.033Z,22.57
2019-06-20T04:48:13.637Z,22.82
2019-06-20T04:50:44.809Z,22.96
2019-06-20T04:53:15.912Z,23.11
2019-06-20T04:55:47.021Z,23.32
2019-06-20T04:58:18.175Z,23.44
2019-06-20T05:00:49.482Z,23.99
2019-06-20T05:03:20.636Z,23.67
2019-06-20T05:05:51.718Z,23.44
2019-06-20T05:08:22.861Z,23.71
2019-06-20T05:10:54.154Z,24.40
2019-06-20T05:13:25.305Z,24.67
2019-06-20T05:15:56.406Z,24.93
2019-06-20T05:18:27.546Z,25.19
2019-06-20T05:20:58.682Z,24.81
2019-06-20T05:23:29.806Z,24.66
2019-06-20T05:26:00.936Z,24.63
2019-06-20T05:28:33.252Z,24.63
2019-06-20T05:31:04.447Z,24.61
2019-06-20T05:33:35.536Z,24.66
2019-06-20T05:36:06.635Z,24.72
2019-06-20T05:38:37.745Z,24.79
2019-06-20T05:41:08.838Z,24.78
2019-06-20T05:43:39.951Z,24.85
2019-06-20T05:46:11.306Z,24.87
2019-06-20T05:48:43.336Z,25.02
2019-06-20T05:51:14.436Z,25.14
2019-06-20T05:53:45.554Z,25.24
2019-06-20T05:56:16.628Z,25.31
2019-06-20T05:58:47.758Z,25.34
2019-06-20T06:01:18.838Z,25.37
2019-06-20T06:03:49.951Z,25.48
2019-06-20T06:06:21.027Z,25.51
2019-06-20T06:08:52.135Z,25.59
2019-06-20T06:11:23.229Z,25.67
2019-06-20T06:13:54.332Z,25.70
2019-06-20T06:16:28.244Z,25.88
2019-06-20T06:18:58.191Z,26.00
2019-06-20T06:21:29.331Z,26.00
2019-06-20T06:24:00.469Z,26.07
2019-06-20T06:26:31.744Z,26.12
2019-06-20T06:29:03.274Z,26.24
2019-06-20T06:31:34.348Z,26.35
2019-06-20T06:34:05.654Z,26.49
2019-06-20T06:36:36.747Z,26.56
2019-06-20T06:39:11.663Z,26.71
2019-06-20T06:41:42.740Z,26.83
2019-06-20T06:44:13.883Z,27.09
2019-06-20T06:46:53.155Z,27.33
2019-06-20T06:49:17.733Z,27.33
2019-06-20T06:51:48.840Z,27.40
2019-06-20T06:54:19.948Z,27.57
2019-06-20T06:56:51.030Z,27.72
2019-06-20T06:59:22.296Z,27.83
2019-06-20T07:01:53.321Z,27.96
2019-06-20T07:04:24.434Z,28.15
2019-06-20T07:06:55.528Z,28.18
2019-06-20T07:09:26.651Z,28.37
2019-06-20T07:11:57.748Z,28.43
2019-06-20T07:14:29.308Z,28.63
2019-06-20T07:17:00.907Z,28.73
2019-06-20T07:19:32.135Z,28.85
2019-06-20T07:22:03.258Z,29.00
2019-06-20T07:24:34.373Z,29.06
2019-06-20T07:27:05.458Z,29.29
2019-06-20T07:29:36.599Z,29.39
2019-06-20T07:32:07.681Z,29.63
2019-06-20T07:34:38.841Z,29.78
2019-06-20T07:37:09.973Z,29.87
2019-06-20T07:39:41.090Z,30.13
2019-06-20T07:42:12.187Z,30.16
2019-06-20T07:44:43.418Z,30.22
2019-06-20T07:47:17.966Z,30.33
2019-06-20T07:49:47.260Z,30.40
2019-06-20T07:52:18.374Z,30.54
2019-06-20T07:54:49.513Z,30.60
2019-06-20T07:57:20.612Z,30.87
2019-06-20T07:59:51.737Z,30.79
2019-06-20T08:02:22.833Z,30.97
2019-06-20T08:04:53.944Z,31.07
2019-06-20T08:07:25.042Z,31.06
2019-06-20T08:09:56.175Z,31.05
2019-06-20T08:12:27.351Z,31.04
2019-06-20T08:15:13.971Z,31.11
2019-06-20T08:17:35.588Z,31.20
2019-06-20T08:20:09.593Z,31.16
2019-06-20T08:22:41.318Z,31.00
2019-06-20T08:25:14.369Z,30.86
2019-06-20T08:27:57.140Z,30.78
2019-06-20T08:30:36.492Z,30.60
2019-06-20T08:33:12.005Z,30.55
2019-06-20T08:35:42.300Z,30.69
2019-06-20T08:38:13.394Z,30.76
2019-06-20T08:40:44.620Z,30.80
2019-06-20T08:43:15.814Z,30.85
2019-06-20T08:45:47.063Z,31.03
2019-06-20T08:48:18.201Z,30.89
2019-06-20T08:50:49.351Z,30.97
2019-06-20T08:53:20.433Z,30.86
2019-06-20T08:55:51.538Z,30.95
2019-06-20T08:58:23.066Z,30.90
2019-06-20T09:00:55.871Z,30.82
2019-06-20T09:03:26.930Z,30.97
2019-06-20T09:05:58.267Z,31.14
2019-06-20T09:08:29.607Z,31.03
2019-06-20T09:11:01.818Z,31.23
2019-06-20T09:13:32.936Z,31.09
2019-06-20T09:16:04.172Z,31.21
2019-06-20T09:18:39.801Z,31.32
2019-06-20T09:21:10.928Z,31.24
2019-06-20T09:23:42.098Z,30.95
2019-06-20T09:26:13.239Z,31.09
2019-06-20T09:28:44.335Z,31.09
2019-06-20T09:31:15.443Z,31.06
2019-06-20T09:33:46.527Z,31.23
2019-06-20T09:36:17.856Z,31.48
2019-06-20T09:38:49.103Z,31.57
2019-06-20T09:41:20.211Z,31.72
2019-06-20T09:43:52.763Z,31.61
2019-06-20T09:46:23.937Z,31.60
2019-06-20T09:48:55.605Z,31.66
2019-06-20T09:51:26.834Z,31.70
2019-06-20T09:53:58.222Z,31.49
2019-06-20T09:56:29.478Z,31.60
2019-06-20T09:59:00.572Z,31.74
2019-06-20T10:01:31.884Z,31.68
2019-06-20T10:04:03.063Z,31.84
2019-06-20T10:06:34.323Z,31.94
2019-06-20T10:09:08.568Z,31.90
2019-06-20T10:11:39.684Z,31.77
2019-06-20T10:14:10.766Z,31.86
2019-06-20T10:16:45.682Z,31.83
2019-06-20T10:19:14.569Z,31.78
2019-06-20T10:21:46.752Z,31.92
2019-06-20T10:24:18.412Z,31.82
2019-06-20T10:26:49.635Z,31.71
2019-06-20T10:29:22.169Z,31.84
2019-06-20T10:31:53.296Z,31.61
2019-06-20T10:34:24.393Z,31.93
2019-06-20T10:36:56.985Z,31.80
2019-06-20T10:39:28.210Z,32.06
2019-06-20T10:41:59.356Z,32.02
2019-06-20T10:44:30.532Z,32.21
2019-06-20T10:47:01.702Z,32.29
2019-06-20T10:49:32.779Z,32.09
2019-06-20T10:52:04.349Z,31.95
2019-06-20T10:54:37.007Z,32.06
2019-06-20T10:57:08.486Z,32.13
2019-06-20T10:59:39.877Z,32.03
2019-06-20T11:02:12.221Z,32.14
2019-06-20T11:04:44.061Z,32.22
2019-06-20T11:07:15.352Z,32.17
2019-06-20T11:09:47.133Z,32.15
2019-06-20T11:12:18.394Z,32.22
2019-06-20T11:14:49.466Z,32.19
2019-06-20T11:17:20.914Z,32.23
2019-06-20T11:19:52.000Z,32.10
2019-06-20T11:22:23.163Z,32.13
2019-06-20T11:24:54.249Z,32.10
2019-06-20T11:27:25.400Z,32.02
2019-06-20T11:29:56.491Z,31.94
2019-06-20T11:32:27.627Z,32.13
2019-06-20T11:34:58.714Z,32.04
2019-06-20T11:37:29.855Z,31.65
2019-06-20T11:40:00.927Z,31.72
2019-06-20T11:42:32.071Z,31.70
2019-06-20T11:45:03.164Z,31.67
2019-06-20T11:47:35.482Z,31.71
2019-06-20T11:50:10.377Z,31.82
2019-06-20T11:52:45.355Z,32.04
2019-06-20T11:55:15.329Z,32.06
2019-06-20T11:57:46.471Z,32.15
2019-06-20T12:00:18.083Z,32.35
2019-06-20T12:02:50.275Z,32.25
2019-06-20T12:05:23.355Z,31.87
2019-06-20T12:07:54.628Z,31.69
2019-06-20T12:10:25.707Z,31.92
2019-06-20T12:12:57.536Z,32.09
2019-06-20T12:15:28.737Z,32.25
2019-06-20T12:18:00.249Z,32.28
2019-06-20T12:20:31.334Z,32.41
2019-06-20T12:23:02.501Z,32.35
2019-06-20T12:25:33.597Z,32.13
2019-06-20T12:28:04.812Z,31.96
2019-06-20T12:30:35.932Z,32.04
2019-06-20T12:33:07.071Z,31.98
2019-06-20T12:35:39.525Z,31.93
2019-06-20T12:38:15.054Z,31.91
2019-06-20T12:40:46.923Z,31.90
2019-06-20T12:43:18.911Z,32.24
2019-06-20T12:45:51.716Z,32.35
2019-06-20T12:48:23.698Z,32.38
2019-06-20T12:50:55.878Z,32.38
2019-06-20T12:53:29.838Z,32.37
2019-06-20T12:56:01.528Z,32.41
2019-06-20T12:58:37.344Z,32.47
2019-06-20T13:01:10.527Z,32.64
2019-06-20T13:03:42.813Z,32.65
2019-06-20T13:06:14.713Z,32.43
2019-06-20T13:08:47.416Z,32.20
2019-06-20T13:11:22.997Z,31.93
2019-06-20T13:13:54.734Z,31.88
2019-06-20T13:16:31.460Z,31.85
2019-06-20T13:19:02.960Z,31.82
2019-06-20T13:21:35.011Z,31.91
2019-06-20T13:24:07.036Z,32.16
2019-06-20T13:26:40.661Z,32.40
2019-06-20T13:29:12.997Z,32.52
2019-06-20T13:32:00.539Z,32.60
2019-06-20T13:34:20.831Z,32.71
2019-06-20T13:36:54.607Z,32.70
2019-06-20T13:39:27.145Z,32.97
2019-06-20T13:42:06.953Z,32.92
2019-06-20T13:44:42.581Z,32.79
2019-06-20T13:47:15.817Z,32.44
2019-06-20T13:49:48.268Z,32.29
2019-06-20T13:52:20.823Z,32.01
2019-06-20T13:54:52.516Z,31.79
2019-06-20T13:57:24.423Z,31.84
2019-06-20T13:59:56.623Z,31.91
2019-06-20T14:02:28.753Z,31.89
2019-06-20T14:05:01.490Z,31.75
2019-06-20T14:07:33.340Z,31.44
2019-06-20T14:10:07.593Z,31.39
2019-06-20T14:12:44.653Z,31.34
2019-06-20T14:15:18.217Z,31.23
2019-06-20T14:17:50.231Z,31.09
2019-06-20T14:20:23.425Z,31.04
2019-06-20T14:22:54.925Z,30.96
2019-06-20T14:25:26.557Z,31.02
2019-06-20T14:27:57.931Z,30.92
2019-06-20T14:30:31.680Z,30.81
2019-06-20T14:33:03.393Z,30.82
2019-06-20T14:35:35.062Z,30.75
2019-06-20T14:38:06.130Z,30.69
2019-06-20T14:40:37.676Z,30.61
2019-06-20T14:43:08.862Z,30.52
2019-06-20T14:45:40.009Z,30.43
2019-06-20T14:48:11.117Z,30.22
2019-06-20T14:50:43.796Z,29.54
2019-06-20T14:53:15.079Z,28.98
2019-06-20T14:55:49.775Z,28.51
2019-06-20T14:58:24.766Z,27.73
2019-06-20T15:00:57.396Z,27.00
2019-06-20T15:03:32.937Z,26.58
2019-06-20T15:06:11.612Z,26.03
2019-06-20T15:09:03.452Z,25.78
2019-06-20T15:11:30.142Z,25.66
2019-06-20T15:14:02.362Z,25.68
2019-06-20T15:16:34.204Z,25.66
2019-06-20T15:19:07.007Z,25.28
2019-06-20T15:21:40.652Z,25.28
2019-06-20T15:24:12.944Z,24.88
2019-06-20T15:26:45.849Z,24.64
2019-06-20T15:29:18.298Z,24.75
2019-06-20T15:31:53.118Z,24.74
2019-06-20T15:37:48.468Z,24.77
2019-06-20T15:40:25.527Z,24.83
2019-06-20T15:42:58.919Z,24.88
2019-06-20T15:45:30.777Z,24.59
2019-06-20T15:48:02.553Z,24.37
2019-06-20T15:50:35.236Z,24.24
2019-06-20T15:53:08.153Z,24.18
2019-06-20T15:55:42.980Z,24.32
2019-06-20T15:58:16.430Z,24.33
2019-06-20T16:00:48.394Z,24.48
2019-06-20T16:03:24.043Z,24.59
2019-06-20T16:05:57.679Z,24.72
2019-06-20T16:08:31.740Z,24.96
2019-06-20T16:11:06.196Z,25.12
2019-06-20T16:13:40.645Z,25.44
2019-06-20T16:16:12.989Z,25.85
2019-06-20T16:18:45.515Z,26.13
2019-06-20T16:21:16.854Z,26.37
2019-06-20T16:23:48.543Z,26.56
2019-06-20T16:26:19.895Z,26.68
2019-06-20T16:28:52.449Z,26.86
2019-06-20T16:31:27.064Z,26.93
2019-06-20T16:33:58.247Z,26.91
2019-06-20T16:36:30.167Z,26.67
2019-06-20T16:39:02.324Z,26.60
2019-06-20T16:41:33.565Z,26.56
2019-06-20T16:44:06.050Z,26.53
2019-06-20T16:46:37.329Z,26.48
2019-06-20T16:49:09.501Z,26.49
2019-06-20T16:51:43.172Z,26.47
2019-06-20T16:54:15.497Z,26.56
2019-06-20T16:56:49.776Z,26.74
2019-06-20T16:59:23.160Z,26.78
2019-06-20T17:01:54.392Z,26.82
2019-06-20T17:04:27.877Z,26.77
2019-06-20T17:06:59.434Z,26.81
2019-06-20T17:09:30.974Z,26.81
2019-06-20T17:12:02.083Z,26.89
2019-06-20T17:14:33.328Z,26.99
2019-06-20T17:17:04.512Z,27.00
2019-06-20T17:19:36.411Z,27.08
2019-06-20T17:22:07.899Z,27.08
2019-06-20T17:24:39.508Z,27.04
2019-06-20T17:27:10.775Z,27.04
2019-06-20T17:29:42.319Z,27.06
2019-06-20T17:32:14.443Z,27.06
2019-06-20T17:34:45.966Z,27.06
2019-06-20T17:37:17.511Z,27.01
2019-06-20T17:39:48.796Z,26.99
2019-06-20T17:42:19.889Z,26.93
2019-06-20T17:44:51.267Z,26.80
2019-06-20T17:47:22.634Z,26.80
2019-06-20T17:49:54.058Z,26.85
2019-06-20T17:52:25.655Z,26.88
2019-06-20T17:54:57.108Z,26.91
2019-06-20T17:57:29.183Z,26.95
2019-06-20T18:00:00.747Z,27.04
2019-06-20T18:02:32.416Z,27.14
2019-06-20T18:05:04.295Z,27.14
2019-06-20T18:07:35.454Z,27.11
2019-06-20T18:10:10.785Z,27.09
2019-06-20T18:12:42.023Z,27.06
2019-06-20T18:15:14.273Z,27.03
2019-06-20T18:17:45.373Z,27.00
2019-06-20T18:20:17.439Z,27.00
2019-06-20T18:22:48.710Z,27.06
2019-06-20T18:27:08.028Z,27.08
2019-06-20T18:30:53.710Z,27.15
2019-06-20T18:33:24.821Z,27.19
2019-06-20T18:35:56.144Z,27.16
2019-06-20T18:38:27.476Z,27.16
2019-06-20T18:40:58.819Z,27.17
2019-06-20T18:43:29.921Z,27.14
2019-06-20T18:46:01.476Z,27.01
2019-06-20T18:48:33.109Z,27.01
2019-06-20T18:51:06.824Z,26.88
2019-06-20T18:53:38.157Z,26.76
2019-06-20T18:56:11.150Z,26.69
2019-06-20T18:58:42.319Z,26.56
2019-06-20T19:01:13.954Z,26.41
2019-06-20T19:03:46.159Z,26.35
2019-06-20T19:06:18.080Z,26.33
2019-06-20T19:08:49.179Z,26.25
2019-06-20T19:11:20.441Z,26.23
2019-06-20T19:17:00.939Z,26.07
2019-06-20T19:19:46.827Z,25.98
2019-06-20T19:25:22.435Z,25.64
2019-06-20T19:27:54.487Z,25.51
2019-06-20T19:30:42.637Z,25.43
2019-06-20T19:33:14.083Z,25.45
2019-06-20T19:35:45.532Z,25.35
2019-06-20T19:38:18.136Z,25.25
2019-06-20T19:40:51.151Z,25.20
2019-06-20T19:43:25.807Z,25.12
2019-06-20T19:45:58.552Z,25.08
2019-06-20T19:48:30.362Z,24.97
2019-06-20T19:51:02.543Z,24.92
2019-06-20T19:53:34.476Z,24.83
2019-06-20T19:56:06.837Z,24.76
2019-06-20T19:58:38.565Z,24.77
2019-06-20T20:01:10.477Z,24.77
2019-06-20T20:03:41.887Z,24.75
2019-06-20T20:06:15.134Z,24.70
2019-06-20T20:08:46.608Z,24.67
2019-06-20T20:11:17.948Z,24.62
2019-06-20T20:13:50.245Z,24.51
2019-06-20T20:16:22.506Z,24.48
2019-06-20T20:18:54.447Z,24.41
2019-06-20T20:21:26.529Z,24.29
2019-06-20T20:23:59.121Z,24.17
2019-06-20T20:26:31.847Z,24.04
2019-06-20T20:29:03.511Z,23.97
2019-06-20T20:31:35.148Z,23.88
2019-06-20T20:34:07.562Z,23.74
2019-06-20T20:36:41.153Z,23.68
2019-06-20T20:39:12.649Z,23.71
2019-06-20T20:44:46.674Z,23.58
2019-06-20T20:47:20.864Z,23.56
2019-06-20T20:56:16.814Z,23.44
2019-06-20T20:58:48.334Z,23.39
2019-06-20T21:01:29.333Z,23.37
2019-06-20T21:04:01.361Z,23.40
2019-06-20T21:06:32.489Z,23.42
2019-06-20T21:09:03.659Z,23.37
2019-06-20T21:11:35.737Z,23.39
2019-06-20T21:14:06.922Z,23.32
2019-06-20T21:16:38.159Z,23.30
2019-06-20T21:19:10.207Z,23.25
2019-06-20T21:21:41.339Z,23.20
2019-06-20T21:24:14.050Z,23.15
2019-06-20T21:26:49.564Z,23.22
2019-06-20T21:29:18.351Z,23.23
2019-06-20T21:31:49.468Z,23.18
2019-06-20T21:34:20.612Z,23.13
2019-06-20T21:36:51.741Z,23.10
2019-06-20T21:39:22.951Z,23.02
2019-06-20T21:41:54.075Z,22.83
2019-06-20T21:44:25.242Z,22.78
2019-06-20T21:46:56.378Z,22.80
2019-06-20T21:49:27.532Z,22.71
2019-06-20T21:51:58.665Z,22.68
2019-06-20T21:54:29.939Z,22.63
2019-06-20T21:57:01.064Z,22.57
2019-06-20T21:59:32.320Z,22.53
2019-06-20T22:02:03.563Z,22.59
2019-06-20T22:04:34.691Z,22.61
2019-06-20T22:07:05.922Z,22.63
2019-06-20T22:09:37.204Z,22.62
2019-06-20T22:12:08.331Z,22.43
2019-06-20T22:14:39.578Z,22.45
2019-06-20T22:17:10.727Z,22.48
2019-06-20T22:19:41.868Z,22.40
2019-06-20T22:22:13.000Z,22.26
2019-06-20T22:24:44.092Z,22.16
2019-06-20T22:27:15.209Z,22.14
2019-06-20T22:29:46.346Z,22.05
2019-06-20T22:32:17.511Z,21.93
2019-06-20T22:34:48.589Z,21.86
2019-06-20T22:37:19.713Z,21.90
2019-06-20T22:39:50.872Z,21.92
2019-06-20T22:42:22.127Z,21.89
2019-06-20T22:44:53.212Z,21.86
2019-06-20T22:47:24.528Z,21.74
2019-06-20T22:49:55.604Z,21.65
2019-06-20T22:52:26.858Z,21.61
2019-06-20T22:54:57.937Z,21.54
2019-06-20T22:57:29.217Z,21.58
2019-06-20T23:00:00.280Z,21.53
2019-06-20T23:02:31.984Z,21.50
2019-06-20T23:05:03.290Z,21.53
2019-06-20T23:07:34.628Z,21.52
2019-06-20T23:10:11.238Z,21.54
2019-06-20T23:12:42.288Z,21.52
2019-06-20T23:15:14.597Z,21.48
2019-06-20T23:17:45.847Z,21.50
2019-06-20T23:20:17.228Z,21.58
2019-06-20T23:22:48.525Z,21.50
2019-06-20T23:25:19.945Z,21.53
2019-06-20T23:27:51.025Z,21.56
2019-06-20T23:30:24.311Z,21.56
2019-06-20T23:32:55.393Z,21.46
2019-06-20T23:35:26.716Z,21.45
2019-06-20T23:37:57.820Z,21.46
2019-06-20T23:40:29.028Z,21.50
2019-06-20T23:43:00.814Z,21.49
2019-06-20T23:45:31.928Z,21.47
2019-06-20T23:48:03.009Z,21.38
2019-06-20T23:50:34.141Z,21.32
2019-06-20T23:53:05.009Z,21.31
2019-06-20T23:55:36.437Z,21.34
2019-06-20T23:58:07.526Z,21.25
